(°C)
-1°
(°C)
-7°
-6°
-5°
-5°
-4°
-5°
-5°
SE
SE
ESE
SE
ESE
ESE
ESE
(km/h)
15-23
15-24
14-25
15-24
14-21
13-18
12-19
(mm)
0
0
0
0
0
0
0
(%)
0
0
0
0
0
0
0

Elevația soarelui

/ 17.1°
sun-icon
UV 1
07:46
16:03
Primul pătrar (58°)
11:58
20:38

METAR pentru 50.1°N 14.27°E (LKPR)

Ora Condiții Temperatură/
Punctul de rouă
Vânt Vizibilitate Vremea Nori Presiune Schimbă Brut
MVFR -1°C / -2°C 110º 8kt 7000m - Scattered Clouds 700ft
Broken Clouds 1600ft
1004 No Significant change LKPR 081030Z 11008KT 7000 SCT007 BKN016 M01/M02 Q1004 NOSIG
MVFR -1°C / -2°C 90º 9kt 6000m - Scattered Clouds 600ft
Scattered Clouds 1200ft
Broken Clouds 1500ft
1004 Becoming: Broken Clouds 2000ft. LKPR 081000Z 09009KT 6000 SCT006 SCT012 BKN015 M01/M02 Q1004 BECMG BKN020
MVFR -2°C / -2°C 120º 9kt 6000m - Scattered Clouds 600ft
Broken Clouds 1200ft
Broken Clouds 1900ft
1004 - LKPR 080944Z 12009KT 6000 SCT006 BKN012 BKN019 M02/M02 Q1004 RMK REG QNH 1000
IFR -2°C / -2°C 90º 11kt 5000m Mist Vertical Visibility of 0ft. 1004 Becoming: Scattered Clouds 600ft. LKPR 080930Z 09011KT 5000 BR BKN006 M02/M02 Q1004 BECMG SCT006
IFR -2°C / -2°C 90º 10kt 5000m Mist Vertical Visibility of 0ft. 1005 - LKPR 080916Z 09010KT 5000 BR BKN005 M02/M02 Q1005 RMK REG QNH 1000
LIFR -2°C / -2°C 90º 9kt 5000m Mist Vertical Visibility of 0ft. 1005 Temporary: Scattered Clouds 500ft. LKPR 080900Z 09009KT 5000 BR BKN004 M02/M02 Q1005 TEMPO SCT005
LIFR -2°C / -2°C 80º 9kt 3300m Mist Vertical Visibility of 0ft. 1005 Temporary: Visibility 5000. Mist . Scattered Clouds 300ft. LKPR 080830Z 08009KT 3300 BR BKN003 M02/M02 Q1005 TEMPO 5000 BR SCT003
LIFR -2°C / -2°C 90º 10kt 3000m Mist Vertical Visibility of 0ft.
Broken Clouds 300ft
1005 - LKPR 080808Z 09010KT 3000 BR SCT002 BKN003 M02/M02 Q1005 RMK REG QNH 1000
LIFR -3°C / -3°C 70º 6kt 2800m Mist Vertical Visibility of 0ft. 1005 - LKPR 080733Z 07006KT 2800 BR BKN002 M03/M03 Q1005 RMK REG QNH 1000
IFR -4°C / -4°C 70º 5kt 4200m Mist Vertical Visibility of 0ft. 1005 - LKPR 080721Z 07005KT 4200 BR FEW001 M04/M04 Q1005 RMK REG QNH 1000
MVFR -3°C / -4°C 70º 4kt 7000m - Few Clouds 1500ft 1005 No Significant change LKPR 080700Z 07004KT 7000 FEW015 M03/M04 Q1005 NOSIG
VFR -2°C / -3°C 100º 4kt >10km - Clouds and Visibility OK 1005 No Significant change LKPR 080630Z 10004KT CAVOK M02/M03 Q1005 NOSIG
VFR -2°C / -3°C 110º 5kt >10km - Few Clouds 1400ft 1005 No Significant change LKPR 080600Z 11005KT 9999 FEW014 M02/M03 Q1005 NOSIG
VFR -2°C / -3°C 120º 5kt >10km - Scattered Clouds 1300ft 1005 - LKPR 080551Z 12005KT 9999 SCT013 M02/M03 Q1005 RMK REG QNH 1001
MVFR -1°C / -2°C 140º 7kt >10km - Broken Clouds 1300ft 1005 No Significant change LKPR 080530Z 14007KT 9999 BKN013 M01/M02 Q1005 NOSIG
MVFR -1°C / -1°C 130º 8kt >10km - Broken Clouds 1100ft 1005 No Significant change LKPR 080500Z 13008KT 9999 BKN011 M01/M01 Q1005 NOSIG
MVFR -1°C / -1°C 140º 7kt >10km - Scattered Clouds 900ft
Broken Clouds 1100ft
1005 - LKPR 080443Z 14007KT 9999 SCT009 BKN011 M01/M01 Q1005 RMK REG QNH 1001
IFR -1°C / -1°C 140º 6kt >10km - Broken Clouds 900ft 1005 No Significant change LKPR 080430Z 14006KT 9999 BKN009 M01/M01 Q1005 NOSIG
IFR -2°C / -2°C 130º 8kt 9000m - Broken Clouds 700ft 1005 No Significant change LKPR 080400Z 13008KT 9000 BKN007 M02/M02 Q1005 NOSIG
MVFR -2°C / -3°C 110º 5kt 6000m. Runway 24: Visual range is 1300m and increasing. Runway 30: Visual range is 2000m. patches Fog Vertical Visibility of 0ft. 1005 Temporary: Visibility 3000. Mist . LKPR 080330Z 11005KT 6000 1800NE R24/1300U R30/P2000N BCFG FEW001 M02/M03 Q1005 TEMPO 3000 BR
MVFR -2°C / -3°C 110º 4kt 6000m. Runway 24: Visual range is 600m and increasing. Runway 30: Visual range is 2000m. patches Fog Vertical Visibility of 0ft. 1005 - LKPR 080324Z 11004KT 6000 1800NE R24/0600U R30/P2000N BCFG FEW001 M02/M03 Q1005 RMK REG QNH 1001
IFR -3°C / -4°C 90º 6kt 3500m. Runway 24: Visual range is 375m. patches Fog Mist Vertical Visibility of 0ft. 1005 Temporary: Visibility 1500. Mist . LKPR 080300Z 09006KT 3500 0700NE R24/0375N BR BCFG FEW002 M03/M04 Q1005 TEMPO 1500 BR
LIFR -4°C / -4°C 90º 5kt 690m. Runway 24: Visual range is 500m and increasing. Runway 30: Visual range is 2000m. freezing Fog Vertical Visibility of 0ft. 1006 - LKPR 080254Z 09005KT 0700 R24/0500U R30/P2000N FZFG SCT002 M04/M04 Q1006 RMK REG QNH 1001
LIFR -2°C / -3°C 100º 5kt 400m. Runway 24: Visual range is 375m. Runway 30: Visual range is 2000m. freezing Fog Vertical Visibility of 0ft. 1006 No Significant change LKPR 080230Z 10005KT 0400 R24/0375N R30/P2000N FZFG SCT002 M02/M03 Q1006 NOSIG

MVFR

-1°C / -2°C

[Mai mult]
Vânt 110º 8kt
Vizibilitate 7000m
Vremea -
Nori Scattered Clouds 700ft
Broken Clouds 1600ft
Presiune 1004
Schimbă No Significant change
Brut LKPR 081030Z 11008KT 7000 SCT007 BKN016 M01/M02 Q1004 NOSIG

MVFR

-1°C / -2°C

[Mai mult]
Vânt 90º 9kt
Vizibilitate 6000m
Vremea -
Nori Scattered Clouds 600ft
Scattered Clouds 1200ft
Broken Clouds 1500ft
Presiune 1004
Schimbă Becoming: Broken Clouds 2000ft.
Brut LKPR 081000Z 09009KT 6000 SCT006 SCT012 BKN015 M01/M02 Q1004 BECMG BKN020

MVFR

-2°C / -2°C

[Mai mult]
Vânt 120º 9kt
Vizibilitate 6000m
Vremea -
Nori Scattered Clouds 600ft
Broken Clouds 1200ft
Broken Clouds 1900ft
Presiune 1004
Schimbă -
Brut LKPR 080944Z 12009KT 6000 SCT006 BKN012 BKN019 M02/M02 Q1004 RMK REG QNH 1000

IFR

-2°C / -2°C

[Mai mult]
Vânt 90º 11kt
Vizibilitate 5000m
Vremea Mist
Nori Vertical Visibility of 0ft.
Presiune 1004
Schimbă Becoming: Scattered Clouds 600ft.
Brut LKPR 080930Z 09011KT 5000 BR BKN006 M02/M02 Q1004 BECMG SCT006

IFR

-2°C / -2°C

[Mai mult]
Vânt 90º 10kt
Vizibilitate 5000m
Vremea Mist
Nori Vertical Visibility of 0ft.
Presiune 1005
Schimbă -
Brut LKPR 080916Z 09010KT 5000 BR BKN005 M02/M02 Q1005 RMK REG QNH 1000

LIFR

-2°C / -2°C

[Mai mult]
Vânt 90º 9kt
Vizibilitate 5000m
Vremea Mist
Nori Vertical Visibility of 0ft.
Presiune 1005
Schimbă Temporary: Scattered Clouds 500ft.
Brut LKPR 080900Z 09009KT 5000 BR BKN004 M02/M02 Q1005 TEMPO SCT005

LIFR

-2°C / -2°C

[Mai mult]
Vânt 80º 9kt
Vizibilitate 3300m
Vremea Mist
Nori Vertical Visibility of 0ft.
Presiune 1005
Schimbă Temporary: Visibility 5000. Mist . Scattered Clouds 300ft.
Brut LKPR 080830Z 08009KT 3300 BR BKN003 M02/M02 Q1005 TEMPO 5000 BR SCT003

LIFR

-2°C / -2°C

[Mai mult]
Vânt 90º 10kt
Vizibilitate 3000m
Vremea Mist
Nori Vertical Visibility of 0ft.
Broken Clouds 300ft
Presiune 1005
Schimbă -
Brut LKPR 080808Z 09010KT 3000 BR SCT002 BKN003 M02/M02 Q1005 RMK REG QNH 1000

LIFR

-3°C / -3°C

[Mai mult]
Vânt 70º 6kt
Vizibilitate 2800m
Vremea Mist
Nori Vertical Visibility of 0ft.
Presiune 1005
Schimbă -
Brut LKPR 080733Z 07006KT 2800 BR BKN002 M03/M03 Q1005 RMK REG QNH 1000

IFR

-4°C / -4°C

[Mai mult]
Vânt 70º 5kt
Vizibilitate 4200m
Vremea Mist
Nori Vertical Visibility of 0ft.
Presiune 1005
Schimbă -
Brut LKPR 080721Z 07005KT 4200 BR FEW001 M04/M04 Q1005 RMK REG QNH 1000

MVFR

-3°C / -4°C

[Mai mult]
Vânt 70º 4kt
Vizibilitate 7000m
Vremea -
Nori Few Clouds 1500ft
Presiune 1005
Schimbă No Significant change
Brut LKPR 080700Z 07004KT 7000 FEW015 M03/M04 Q1005 NOSIG

VFR

-2°C / -3°C

[Mai mult]
Vânt 100º 4kt
Vizibilitate >10km
Vremea -
Nori Clouds and Visibility OK
Presiune 1005
Schimbă No Significant change
Brut LKPR 080630Z 10004KT CAVOK M02/M03 Q1005 NOSIG

VFR

-2°C / -3°C

[Mai mult]
Vânt 110º 5kt
Vizibilitate >10km
Vremea -
Nori Few Clouds 1400ft
Presiune 1005
Schimbă No Significant change
Brut LKPR 080600Z 11005KT 9999 FEW014 M02/M03 Q1005 NOSIG

VFR

-2°C / -3°C

[Mai mult]
Vânt 120º 5kt
Vizibilitate >10km
Vremea -
Nori Scattered Clouds 1300ft
Presiune 1005
Schimbă -
Brut LKPR 080551Z 12005KT 9999 SCT013 M02/M03 Q1005 RMK REG QNH 1001

MVFR

-1°C / -2°C

[Mai mult]
Vânt 140º 7kt
Vizibilitate >10km
Vremea -
Nori Broken Clouds 1300ft
Presiune 1005
Schimbă No Significant change
Brut LKPR 080530Z 14007KT 9999 BKN013 M01/M02 Q1005 NOSIG

MVFR

-1°C / -1°C

[Mai mult]
Vânt 130º 8kt
Vizibilitate >10km
Vremea -
Nori Broken Clouds 1100ft
Presiune 1005
Schimbă No Significant change
Brut LKPR 080500Z 13008KT 9999 BKN011 M01/M01 Q1005 NOSIG

MVFR

-1°C / -1°C

[Mai mult]
Vânt 140º 7kt
Vizibilitate >10km
Vremea -
Nori Scattered Clouds 900ft
Broken Clouds 1100ft
Presiune 1005
Schimbă -
Brut LKPR 080443Z 14007KT 9999 SCT009 BKN011 M01/M01 Q1005 RMK REG QNH 1001

IFR

-1°C / -1°C

[Mai mult]
Vânt 140º 6kt
Vizibilitate >10km
Vremea -
Nori Broken Clouds 900ft
Presiune 1005
Schimbă No Significant change
Brut LKPR 080430Z 14006KT 9999 BKN009 M01/M01 Q1005 NOSIG

IFR

-2°C / -2°C

[Mai mult]
Vânt 130º 8kt
Vizibilitate 9000m
Vremea -
Nori Broken Clouds 700ft
Presiune 1005
Schimbă No Significant change
Brut LKPR 080400Z 13008KT 9000 BKN007 M02/M02 Q1005 NOSIG

MVFR

-2°C / -3°C

[Mai mult]
Vânt 110º 5kt
Vizibilitate 6000m. Runway 24: Visual range is 1300m and increasing. Runway 30: Visual range is 2000m.
Vremea patches Fog
Nori Vertical Visibility of 0ft.
Presiune 1005
Schimbă Temporary: Visibility 3000. Mist .
Brut LKPR 080330Z 11005KT 6000 1800NE R24/1300U R30/P2000N BCFG FEW001 M02/M03 Q1005 TEMPO 3000 BR

MVFR

-2°C / -3°C

[Mai mult]
Vânt 110º 4kt
Vizibilitate 6000m. Runway 24: Visual range is 600m and increasing. Runway 30: Visual range is 2000m.
Vremea patches Fog
Nori Vertical Visibility of 0ft.
Presiune 1005
Schimbă -
Brut LKPR 080324Z 11004KT 6000 1800NE R24/0600U R30/P2000N BCFG FEW001 M02/M03 Q1005 RMK REG QNH 1001

IFR

-3°C / -4°C

[Mai mult]
Vânt 90º 6kt
Vizibilitate 3500m. Runway 24: Visual range is 375m.
Vremea patches Fog Mist
Nori Vertical Visibility of 0ft.
Presiune 1005
Schimbă Temporary: Visibility 1500. Mist .
Brut LKPR 080300Z 09006KT 3500 0700NE R24/0375N BR BCFG FEW002 M03/M04 Q1005 TEMPO 1500 BR

LIFR

-4°C / -4°C

[Mai mult]
Vânt 90º 5kt
Vizibilitate 690m. Runway 24: Visual range is 500m and increasing. Runway 30: Visual range is 2000m.
Vremea freezing Fog
Nori Vertical Visibility of 0ft.
Presiune 1006
Schimbă -
Brut LKPR 080254Z 09005KT 0700 R24/0500U R30/P2000N FZFG SCT002 M04/M04 Q1006 RMK REG QNH 1001

LIFR

-2°C / -3°C

[Mai mult]
Vânt 100º 5kt
Vizibilitate 400m. Runway 24: Visual range is 375m. Runway 30: Visual range is 2000m.
Vremea freezing Fog
Nori Vertical Visibility of 0ft.
Presiune 1006
Schimbă No Significant change
Brut LKPR 080230Z 10005KT 0400 R24/0375N R30/P2000N FZFG SCT002 M02/M03 Q1006 NOSIG

TAF pentru 50.1°N 14.27°E (LKPR)

From till


From till Wind 120º 8kt. Visibility 10km or more. Broken Clouds 2500ft.
Temporarly from till Broken Clouds 900ft.
Becoming from till Wind 80º 4kt. Visibility 10km or more. Broken Clouds 1500ft.
Temporarly from till Wind variable 2kt. Visibility 2500m. Light Snow Mist . Broken Clouds 900ft.
Becoming from till Wind 250º 6kt. Visibility 10km or more. Broken Clouds 1500ft.

Brut: TAF LKPR 080500Z 0806/0912 12008KT 9999 BKN025 TEMPO 0806/0808 BKN009 BECMG 0819/0821 08004KT BKN015 TEMPO 0903/0909 VRB02KT 2500 -SN BR BKN009 BECMG 0909/0911 25006KT

Radar și nowcast de precipitații pentru 50.1°N 14.27°E

Burniță
Ușoară
Moderat
Greu
Foarte greu
Grindină

Markerul de locație este plasat în 50.1°N 14.27°E. Această animație arată radarul de precipitații pentru ultima oră, precum și o 1h prognoză. Ploaia sau ninsoarea slabă ar putea fi invizibilă pentru radar. Intensitatea precipitațiilor este codificată prin culori, de la albastru deschis la portocaliu.

Imagini satelitare și ploaie pentru 50.1°N 14.27°E

Markerul cu locaţia este poziţionat pe 50.1°N 14.27°E. [Mai mult]

Imaginea satelitară în timp real combină lumina vizibilă din timpul zilei cu radiația cu infraroșu din timpul nopții. Pe timp de noapte, imaginea nu este întunecată, deoarece radiația cu infraroșu poate detecta diferențele de temperatură. Din păcate, norii joși și ceața sunt greu de recunoscut față de temperatura de la sol, din această cauză putând fi invizibili pe timp de noapte. Imaginile satelitare Meteosat pentru Europa sunt actualizate în timp real din 5 în 5 minute. Imaginile GOES-16/GOES-17 (America de Nord și de Sud) și Himawari (Asia) sunt actualizate din 10 în 10 minute.

Cantitatea de precipitaţii este estimată cu ajutorul radarelor şi a sateliţilor. Estimările satelitare privind cantitatea de precipitaţii sunt mai puţin exacte noaptea decât în timpul zilei. Crucile portocalii marchează locurile unde fulger a fost detectat (over Europa).

Toate drepturile rezervate 2021 EUMETSAT / meteoblue. Datele despre fulgere furnizate de către nowcast.